Time;durP1;ratioP1;P1;durP2;ratioP2;P2;SDS_P1;SDS_P2;PMS_P1;PMS_P2;Temp;Humidity;BMP_temperature;BMP_pressure;BME280_temperature;BME280_humidity;BME280_pressure;Samples;Min_cycle;Max_cycle;Signal;HPM_P1;HPM_P2
2022/09/22 00:01:35;;;;;;;5.80;4.17;;;13.70;55.40;;;;;;5007195;28;20452;-46
2022/09/22 00:04:04;;;;;;;9.80;4.20;;;13.60;55.30;;;;;;5014445;28;20540;-49
2022/09/22 00:06:35;;;;;;;4.60;4.10;;;13.60;55.70;;;;;;5015804;28;20591;-50
2022/09/22 00:09:02;;;;;;;7.67;3.80;;;13.60;55.80;;;;;;5022784;28;20482;-46
2022/09/22 00:11:30;;;;;;;3.87;3.47;;;13.60;55.60;;;;;;5004907;28;20566;-50
2022/09/22 00:13:59;;;;;;;5.10;3.77;;;13.50;55.60;;;;;;5019789;28;20440;-49
2022/09/22 00:16:37;;;;;;;4.10;3.70;;;13.40;56.00;;;;;;5008870;28;20484;-46
2022/09/22 00:19:11;;;;;;;4.10;3.70;;;13.40;56.00;;;;;;5003134;28;20552;-50
2022/09/22 00:21:37;;;;;;;5.70;3.90;;;13.40;55.70;;;;;;5011227;28;20480;-48
2022/09/22 00:24:06;;;;;;;4.03;3.63;;;13.20;56.10;;;;;;5007469;28;21482;-46
2022/09/22 00:26:33;;;;;;;4.13;3.83;;;13.20;56.60;;;;;;5015771;28;20197;-46
2022/09/22 00:29:00;;;;;;;3.73;3.43;;;13.20;56.70;;;;;;5010646;28;21023;-46
2022/09/22 00:31:26;;;;;;;3.77;3.40;;;13.20;56.60;;;;;;5011500;28;20468;-46
2022/09/22 00:33:53;;;;;;;5.30;4.13;;;13.20;56.50;;;;;;5010960;28;20557;-48
2022/09/22 00:36:22;;;;;;;4.73;3.83;;;13.20;56.30;;;;;;5012533;28;20524;-48
2022/09/22 00:38:50;;;;;;;3.77;3.40;;;13.20;56.20;;;;;;5004639;28;20461;-46
2022/09/22 00:41:22;;;;;;;7.10;3.70;;;13.20;56.10;;;;;;5009191;28;20441;-46
2022/09/22 00:43:50;;;;;;;6.30;3.53;;;13.30;55.80;;;;;;5016913;28;20445;-47
2022/09/22 00:46:27;;;;;;;3.90;3.40;;;13.30;55.90;;;;;;5010850;28;20520;-46
2022/09/22 00:49:04;;;;;;;5.17;3.60;;;13.10;55.80;;;;;;5017582;28;20527;-46
2022/09/22 00:51:35;;;;;;;4.30;3.00;;;13.10;55.90;;;;;;5004484;28;20490;-48
2022/09/22 00:54:05;;;;;;;4.10;3.20;;;13.10;56.00;;;;;;5011344;28;20449;-47
2022/09/22 00:57:00;;;;;;;4.00;3.30;;;13.10;55.90;;;;;;5007985;28;20554;-46
2022/09/22 00:59:26;;;;;;;3.30;3.00;;;13.10;55.70;;;;;;5011443;28;20453;-50
2022/09/22 01:01:52;;;;;;;2.97;2.67;;;13.10;55.60;;;;;;5009900;28;20466;-48
2022/09/22 01:04:17;;;;;;;3.43;3.13;;;13.10;55.40;;;;;;5016790;28;20193;-48
2022/09/22 01:06:44;;;;;;;5.23;3.93;;;13.20;55.40;;;;;;5010869;28;20190;-49
2022/09/22 01:09:11;;;;;;;3.70;3.40;;;13.20;55.40;;;;;;5020959;28;20451;-50
2022/09/22 01:11:38;;;;;;;5.57;4.03;;;13.20;55.20;;;;;;5009944;28;20476;-48
2022/09/22 01:14:38;;;;;;;4.30;3.80;;;13.20;55.30;;;;;;5011130;28;20449;-48
2022/09/22 01:17:11;;;;;;;4.20;3.53;;;13.20;55.50;;;;;;5016773;28;20456;-50
2022/09/22 01:19:55;;;;;;;7.67;4.30;;;13.10;55.40;;;;;;5009656;28;20807;-49
2022/09/22 01:22:24;;;;;;;4.10;3.80;;;13.10;55.50;;;;;;5010683;28;20476;-50
2022/09/22 01:25:22;;;;;;;3.83;3.30;;;13.10;55.70;;;;;;5012974;28;20448;-49
2022/09/22 01:28:01;;;;;;;4.77;3.70;;;13.00;55.60;;;;;;5012046;28;20492;-49
2022/09/22 01:30:59;;;;;;;3.73;3.43;;;13.00;55.60;;;;;;5007613;28;21013;-50
2022/09/22 01:33:53;;;;;;;3.73;3.33;;;13.00;55.60;;;;;;5006856;28;20459;-51
2022/09/22 01:36:23;;;;;;;6.63;4.00;;;12.90;55.90;;;;;;5005935;28;21370;-49
2022/09/22 01:38:58;;;;;;;3.53;3.23;;;12.90;55.80;;;;;;5005616;28;20735;-48
2022/09/22 01:41:44;;;;;;;4.27;3.63;;;12.90;55.80;;;;;;4997583;28;20444;-49
2022/09/22 01:44:26;;;;;;;3.93;3.27;;;12.90;55.70;;;;;;5005678;28;20808;-46
2022/09/22 01:47:12;;;;;;;3.60;3.30;;;12.90;55.60;;;;;;5008311;28;20455;-48
2022/09/22 01:49:44;;;;;;;4.00;3.70;;;12.80;55.70;;;;;;5010749;28;20802;-50
2022/09/22 01:52:16;;;;;;;3.60;3.33;;;12.80;55.70;;;;;;5001191;28;20437;-47
2022/09/22 01:54:57;;;;;;;3.60;3.30;;;12.80;55.70;;;;;;5002077;28;20502;-49
2022/09/22 01:57:35;;;;;;;2.80;2.60;;;12.70;55.90;;;;;;5007512;28;20447;-50
2022/09/22 02:00:05;;;;;;;3.67;3.20;;;12.70;55.90;;;;;;5004384;28;20452;-49
2022/09/22 02:02:36;;;;;;;4.30;3.90;;;12.60;56.00;;;;;;4999349;28;20475;-51
2022/09/22 02:05:05;;;;;;;6.63;3.20;;;12.70;56.20;;;;;;5003692;28;20449;-51
2022/09/22 02:07:37;;;;;;;3.60;3.30;;;12.50;56.50;;;;;;5004047;28;20532;-50
2022/09/22 02:10:08;;;;;;;4.30;3.87;;;12.40;56.90;;;;;;5001655;28;20446;-50
2022/09/22 02:12:35;;;;;;;5.90;3.30;;;12.40;57.60;;;;;;4997785;28;20895;-50
2022/09/22 02:15:03;;;;;;;3.57;3.20;;;12.40;57.00;;;;;;5002302;28;20481;-51
2022/09/22 02:17:31;;;;;;;3.67;3.37;;;12.40;57.20;;;;;;5002920;28;20523;-49
2022/09/22 02:19:56;;;;;;;10.90;3.70;;;12.30;57.10;;;;;;5004741;28;20506;-48
2022/09/22 02:22:22;;;;;;;5.67;3.40;;;12.20;57.20;;;;;;5012652;28;20948;-52
2022/09/22 02:24:47;;;;;;;3.70;2.93;;;12.20;57.30;;;;;;5004390;28;20205;-51
2022/09/22 02:27:26;;;;;;;4.00;3.60;;;12.30;57.20;;;;;;5010068;28;20257;-52
2022/09/22 02:29:59;;;;;;;4.03;3.23;;;12.30;57.20;;;;;;5008704;28;20190;-47
2022/09/22 02:32:26;;;;;;;5.20;4.00;;;12.20;57.10;;;;;;5011213;28;20802;-50
2022/09/22 02:34:54;;;;;;;5.67;3.23;;;12.00;57.40;;;;;;5004961;28;20448;-51
2022/09/22 02:37:45;;;;;;;4.37;3.97;;;11.80;57.80;;;;;;5010932;28;20441;-48
2022/09/22 02:40:59;;;;;;;4.03;3.23;;;11.80;58.40;;;;;;5005951;28;20441;-48
2022/09/22 02:43:39;;;;;;;3.20;3.00;;;11.80;58.20;;;;;;5000593;28;20456;-49
2022/09/22 02:46:20;;;;;;;5.37;3.60;;;11.70;58.20;;;;;;5006609;28;20948;-51
2022/09/22 02:48:50;;;;;;;3.90;3.50;;;11.80;58.00;;;;;;5008398;28;20456;-51
2022/09/22 02:51:17;;;;;;;3.67;3.37;;;11.80;57.60;;;;;;5012801;28;20448;-50
2022/09/22 02:53:43;;;;;;;3.80;3.50;;;11.90;57.40;;;;;;5011382;28;20441;-47
2022/09/22 02:56:09;;;;;;;3.47;3.17;;;11.80;57.50;;;;;;5011402;28;20492;-49
2022/09/22 02:58:35;;;;;;;4.27;3.43;;;11.70;57.70;;;;;;5019027;28;20469;-47
2022/09/22 03:01:01;;;;;;;4.33;3.93;;;11.70;57.90;;;;;;5009057;28;20452;-50
2022/09/22 03:03:26;;;;;;;4.20;3.80;;;11.60;58.00;;;;;;5002263;28;20194;-47
2022/09/22 03:05:52;;;;;;;4.73;3.03;;;11.60;58.20;;;;;;5009609;28;20188;-47
2022/09/22 03:08:17;;;;;;;3.73;3.40;;;11.60;58.10;;;;;;5018734;28;20205;-48
2022/09/22 03:10:43;;;;;;;3.70;3.30;;;11.70;58.00;;;;;;5005604;28;20252;-48
2022/09/22 03:13:09;;;;;;;4.60;4.17;;;11.70;58.00;;;;;;5007545;28;20617;-47
2022/09/22 03:15:34;;;;;;;6.70;3.80;;;11.70;57.80;;;;;;5013760;28;20229;-47
2022/09/22 03:18:00;;;;;;;4.97;3.97;;;11.70;57.90;;;;;;5011929;28;20197;-49
2022/09/22 03:20:25;;;;;;;3.63;3.33;;;11.70;57.80;;;;;;5014888;28;20193;-49
2022/09/22 03:22:51;;;;;;;3.77;3.43;;;11.70;57.80;;;;;;5005167;28;20264;-48
2022/09/22 03:25:17;;;;;;;3.40;3.10;;;11.70;57.80;;;;;;5007149;28;20194;-46
2022/09/22 03:27:42;;;;;;;3.70;3.40;;;11.60;57.90;;;;;;5008145;28;20689;-47
2022/09/22 03:30:09;;;;;;;4.03;3.63;;;11.60;57.80;;;;;;5007401;28;20197;-46
2022/09/22 03:32:35;;;;;;;5.60;3.57;;;11.40;58.10;;;;;;5009177;28;20274;-50
2022/09/22 03:35:00;;;;;;;4.20;3.80;;;11.30;58.60;;;;;;5005377;28;21062;-47
2022/09/22 03:37:26;;;;;;;4.50;3.50;;;11.40;58.70;;;;;;5006225;28;20453;-47
2022/09/22 03:39:52;;;;;;;5.90;4.10;;;11.40;58.40;;;;;;5009328;28;20200;-46
2022/09/22 03:42:18;;;;;;;4.00;3.60;;;11.50;58.10;;;;;;5001825;28;20459;-46
2022/09/22 03:44:44;;;;;;;4.03;3.67;;;11.60;57.90;;;;;;5004095;28;20560;-46
2022/09/22 03:47:09;;;;;;;4.50;4.10;;;11.50;57.60;;;;;;5007492;28;20491;-46
2022/09/22 03:49:35;;;;;;;4.33;3.80;;;11.40;58.10;;;;;;5002508;28;20178;-47
2022/09/22 03:52:01;;;;;;;3.63;3.40;;;11.50;58.00;;;;;;5004077;28;20198;-46
2022/09/22 03:54:26;;;;;;;3.80;3.50;;;11.60;57.70;;;;;;5013955;28;20197;-46
2022/09/22 03:56:52;;;;;;;4.00;3.60;;;11.50;57.60;;;;;;5006354;28;20233;-46
2022/09/22 03:59:17;;;;;;;4.67;4.27;;;11.50;57.30;;;;;;5017426;28;20208;-47
2022/09/22 04:01:43;;;;;;;6.40;3.50;;;11.60;57.20;;;;;;5003286;28;20833;-46
2022/09/22 04:04:09;;;;;;;4.13;3.73;;;11.60;57.00;;;;;;5007652;28;20202;-47
2022/09/22 04:06:36;;;;;;;6.13;4.40;;;11.50;57.10;;;;;;5007391;28;20198;-47
2022/09/22 04:09:02;;;;;;;3.67;3.37;;;11.60;57.30;;;;;;5005250;28;20453;-46
2022/09/22 04:11:28;;;;;;;4.83;3.73;;;11.60;57.30;;;;;;5008422;28;20507;-46
2022/09/22 04:13:53;;;;;;;3.50;3.20;;;11.60;57.10;;;;;;5009176;28;20448;-46
2022/09/22 04:16:19;;;;;;;4.00;3.60;;;11.60;56.90;;;;;;5007470;28;20229;-48
2022/09/22 04:18:45;;;;;;;6.30;3.90;;;11.60;56.80;;;;;;5009373;28;20225;-47
2022/09/22 04:21:10;;;;;;;4.27;3.80;;;11.60;56.70;;;;;;5002339;28;20477;-50
2022/09/22 04:23:36;;;;;;;13.10;4.40;;;11.60;56.50;;;;;;5008332;28;20224;-48
2022/09/22 04:26:03;;;;;;;3.83;3.47;;;11.60;56.60;;;;;;5001461;28;20248;-47
2022/09/22 04:28:29;;;;;;;4.77;4.17;;;11.60;56.80;;;;;;5008433;28;20562;-47
2022/09/22 04:30:55;;;;;;;6.67;5.30;;;11.50;56.70;;;;;;5003878;28;20467;-52
2022/09/22 04:33:21;;;;;;;8.13;5.63;;;11.60;56.90;;;;;;5005181;28;20444;-47
2022/09/22 04:35:48;;;;;;;5.90;5.20;;;11.50;56.80;;;;;;5007303;28;20599;-47
2022/09/22 04:38:14;;;;;;;7.60;4.87;;;11.40;56.50;;;;;;5008065;28;20452;-47
2022/09/22 04:40:39;;;;;;;4.43;4.03;;;11.30;57.00;;;;;;5018995;28;20477;-48
2022/09/22 04:43:05;;;;;;;5.63;4.30;;;11.20;57.60;;;;;;5011933;28;20194;-51
2022/09/22 04:45:31;;;;;;;5.37;4.73;;;11.20;57.50;;;;;;5011902;28;20641;-46
2022/09/22 04:47:56;;;;;;;5.90;4.10;;;11.30;57.90;;;;;;5015320;28;20671;-47
2022/09/22 04:50:23;;;;;;;5.10;4.20;;;11.30;57.70;;;;;;5014401;28;20189;-47
2022/09/22 04:52:50;;;;;;;4.73;3.70;;;11.30;57.10;;;;;;5008092;28;20554;-48
2022/09/22 04:55:16;;;;;;;11.90;3.90;;;11.40;57.00;;;;;;5018369;28;20530;-48
2022/09/22 04:57:50;;;;;;;4.90;4.37;;;11.30;56.70;;;;;;5011667;28;20445;-51
2022/09/22 05:00:16;;;;;;;5.13;4.13;;;11.30;56.60;;;;;;5004227;28;20476;-47
2022/09/22 05:02:42;;;;;;;6.03;4.43;;;11.30;56.80;;;;;;5015388;28;20440;-46
2022/09/22 05:05:08;;;;;;;5.37;4.43;;;11.30;56.90;;;;;;5009433;28;20449;-48
2022/09/22 05:07:34;;;;;;;4.40;3.73;;;11.30;56.60;;;;;;5008832;28;20230;-47
2022/09/22 05:09:59;;;;;;;4.93;4.10;;;11.20;56.40;;;;;;5008865;28;20715;-46
2022/09/22 05:12:26;;;;;;;4.70;4.20;;;11.30;56.50;;;;;;5018385;28;20813;-50
2022/09/22 05:14:52;;;;;;;5.37;4.60;;;11.30;56.20;;;;;;5011785;28;20209;-50
2022/09/22 05:17:18;;;;;;;6.80;4.77;;;11.30;56.20;;;;;;5008094;28;20444;-50
2022/09/22 05:19:45;;;;;;;4.73;4.33;;;11.30;56.60;;;;;;5012737;28;21444;-50
2022/09/22 05:22:11;;;;;;;6.70;3.97;;;11.50;57.80;;;;;;5008286;28;20229;-48
2022/09/22 05:24:37;;;;;;;4.43;3.90;;;11.70;59.50;;;;;;5009941;28;20445;-50
2022/09/22 05:27:04;;;;;;;4.00;3.60;;;12.00;59.90;;;;;;5010669;28;20531;-50
2022/09/22 05:29:29;;;;;;;5.13;3.60;;;12.10;58.80;;;;;;5007482;28;20276;-47
2022/09/22 05:31:55;;;;;;;4.50;3.80;;;12.30;58.10;;;;;;5009313;28;20512;-50
2022/09/22 05:34:21;;;;;;;5.80;4.00;;;12.50;57.80;;;;;;5003664;28;20228;-49
2022/09/22 05:36:46;;;;;;;5.63;4.33;;;12.60;56.90;;;;;;4998431;28;20287;-51
2022/09/22 05:39:12;;;;;;;4.37;3.97;;;12.70;56.00;;;;;;5006859;28;20202;-48
2022/09/22 05:41:38;;;;;;;4.57;4.17;;;12.70;55.50;;;;;;5008878;28;20208;-48
2022/09/22 05:44:06;;;;;;;4.60;4.20;;;12.80;54.90;;;;;;5012389;28;20264;-49
2022/09/22 05:46:31;;;;;;;5.30;4.90;;;12.90;54.70;;;;;;5029963;28;20428;-49
2022/09/22 05:48:57;;;;;;;6.13;4.80;;;12.90;54.40;;;;;;5025839;28;20514;-50
2022/09/22 05:51:22;;;;;;;4.80;4.40;;;13.00;53.90;;;;;;5010521;28;20281;-50
2022/09/22 05:53:48;;;;;;;6.10;4.80;;;13.10;53.20;;;;;;5011472;28;20198;-50
2022/09/22 05:56:13;;;;;;;6.60;5.77;;;13.20;52.80;;;;;;5008420;28;20225;-50
2022/09/22 05:58:39;;;;;;;8.90;4.90;;;13.20;52.40;;;;;;5021194;28;20193;-51
2022/09/22 06:01:05;;;;;;;9.27;4.47;;;13.20;51.90;;;;;;5004219;28;20206;-50
2022/09/22 06:03:30;;;;;;;6.67;3.90;;;13.20;51.80;;;;;;5010327;28;20657;-51
2022/09/22 06:05:56;;;;;;;7.10;4.17;;;13.30;52.30;;;;;;5017054;28;20193;-48
2022/09/22 06:08:22;;;;;;;4.63;3.87;;;13.40;52.50;;;;;;5011832;28;20195;-50
2022/09/22 06:10:51;;;;;;;4.43;3.80;;;13.50;52.50;;;;;;5010757;28;20218;-49
2022/09/22 06:13:17;;;;;;;6.27;4.73;;;13.60;52.30;;;;;;5018186;28;22370;-48
2022/09/22 06:15:47;;;;;;;4.60;3.90;;;13.70;52.40;;;;;;5016917;28;20514;-48
2022/09/22 06:18:14;;;;;;;4.07;3.73;;;13.80;52.40;;;;;;5010141;28;20200;-51
2022/09/22 06:20:40;;;;;;;4.50;4.10;;;13.80;51.90;;;;;;5019014;28;21297;-47
2022/09/22 06:23:07;;;;;;;3.47;3.17;;;13.80;53.20;;;;;;5011425;28;20491;-50
2022/09/22 06:25:36;;;;;;;3.80;3.50;;;13.90;53.10;;;;;;5009407;28;20436;-50
2022/09/22 06:28:04;;;;;;;4.30;3.90;;;13.70;52.50;;;;;;5016018;28;20448;-50
2022/09/22 06:30:34;;;;;;;4.20;3.47;;;13.80;53.00;;;;;;5010494;28;20563;-49
2022/09/22 06:33:00;;;;;;;4.73;3.50;;;14.10;52.50;;;;;;5010614;28;20457;-48
2022/09/22 06:35:35;;;;;;;4.17;3.70;;;14.30;52.40;;;;;;5012151;28;20487;-50
2022/09/22 06:38:01;;;;;;;3.80;3.37;;;14.50;52.00;;;;;;5011438;28;20304;-47
2022/09/22 06:40:27;;;;;;;3.60;3.30;;;14.70;51.40;;;;;;5009882;28;20544;-48
2022/09/22 06:43:07;;;;;;;3.40;3.10;;;14.80;51.50;;;;;;5014493;28;20235;-48
2022/09/22 06:45:33;;;;;;;4.73;3.93;;;15.00;51.40;;;;;;5010893;28;20460;-46
2022/09/22 06:47:59;;;;;;;4.97;3.57;;;15.10;51.10;;;;;;5009886;28;21319;-46
2022/09/22 06:50:31;;;;;;;4.90;3.20;;;15.30;50.80;;;;;;5023692;28;20419;-46
2022/09/22 06:53:06;;;;;;;3.60;3.20;;;15.40;50.60;;;;;;5031498;28;20436;-45
2022/09/22 06:55:31;;;;;;;4.20;3.50;;;15.60;50.40;;;;;;5011718;28;20510;-46
2022/09/22 06:57:58;;;;;;;5.53;5.03;;;15.80;50.20;;;;;;5012024;28;21215;-45
2022/09/22 07:00:31;;;;;;;5.00;4.30;;;16.00;49.60;;;;;;5011459;28;20599;-45
2022/09/22 07:03:12;;;;;;;5.33;4.20;;;16.00;49.30;;;;;;5012296;28;20796;-46
2022/09/22 07:05:37;;;;;;;6.93;3.40;;;15.90;49.10;;;;;;5010655;28;20571;-46
2022/09/22 07:08:03;;;;;;;4.03;3.63;;;16.10;49.50;;;;;;5010516;28;20535;-45
2022/09/22 07:10:30;;;;;;;4.30;3.17;;;16.30;49.30;;;;;;5011194;28;20573;-45
2022/09/22 07:12:59;;;;;;;3.97;3.67;;;16.60;48.80;;;;;;5011981;28;20425;-45
2022/09/22 07:15:24;;;;;;;4.70;4.30;;;16.80;48.60;;;;;;5009802;28;21792;-45
2022/09/22 07:17:51;;;;;;;5.07;4.17;;;16.90;48.20;;;;;;5009855;28;20432;-45
2022/09/22 07:20:18;;;;;;;4.80;4.20;;;17.00;48.00;;;;;;5011146;28;20198;-46
2022/09/22 07:22:44;;;;;;;6.40;4.07;;;17.10;48.10;;;;;;5011580;28;20846;-47
2022/09/22 07:25:11;;;;;;;4.53;4.13;;;17.30;48.00;;;;;;5010958;28;20467;-48
2022/09/22 07:27:36;;;;;;;4.73;4.33;;;17.40;48.00;;;;;;5007283;28;20297;-47
2022/09/22 07:30:03;;;;;;;4.50;4.10;;;17.60;47.70;;;;;;5009495;28;20539;-49
2022/09/22 07:32:33;;;;;;;4.73;3.80;;;17.80;47.50;;;;;;5010971;28;20652;-46
2022/09/22 07:34:59;;;;;;;5.03;4.13;;;18.00;47.40;;;;;;5007062;28;20447;-48
2022/09/22 07:37:25;;;;;;;5.50;4.53;;;18.10;47.10;;;;;;5008814;28;20436;-50
2022/09/22 07:39:50;;;;;;;4.80;4.30;;;18.20;46.70;;;;;;5009040;28;20425;-50
2022/09/22 07:42:16;;;;;;;4.80;3.70;;;18.30;47.10;;;;;;5007682;28;20280;-46
2022/09/22 07:50:10;;;;;;;6.03;4.27;;;18.20;46.00;;;;;;5009546;28;20483;-46
2022/09/22 07:52:35;;;;;;;5.00;4.50;;;18.20;46.20;;;;;;5004691;28;21378;-48
2022/09/22 07:55:01;;;;;;;4.70;4.30;;;18.20;46.40;;;;;;5007231;28;20292;-50
2022/09/22 07:57:29;;;;;;;4.90;4.40;;;18.30;46.60;;;;;;5007641;28;20676;-49
2022/09/22 07:59:56;;;;;;;4.60;4.00;;;18.30;46.30;;;;;;5009835;28;20666;-50
2022/09/22 08:02:27;;;;;;;4.70;3.83;;;18.40;46.40;;;;;;5006647;28;20444;-48
2022/09/22 08:04:54;;;;;;;5.83;5.20;;;18.40;46.50;;;;;;5008391;28;20444;-49
2022/09/22 08:07:20;;;;;;;5.53;3.97;;;18.40;46.50;;;;;;5012227;28;20453;-46
2022/09/22 08:09:46;;;;;;;4.23;3.83;;;18.40;46.50;;;;;;5012710;28;21070;-47
2022/09/22 08:12:12;;;;;;;4.17;3.77;;;18.40;46.90;;;;;;5013912;28;20220;-50
2022/09/22 08:14:38;;;;;;;4.53;3.80;;;18.40;47.10;;;;;;5012628;28;20217;-46
2022/09/22 08:17:06;;;;;;;6.20;4.03;;;18.40;47.20;;;;;;5012600;28;20484;-45
2022/09/22 08:19:32;;;;;;;7.43;3.93;;;18.40;47.50;;;;;;5011994;28;20842;-49
2022/09/22 08:21:58;;;;;;;4.40;4.00;;;18.40;47.70;;;;;;5009686;28;21007;-46
2022/09/22 08:24:23;;;;;;;4.03;3.73;;;18.50;46.90;;;;;;5009313;28;20444;-50
2022/09/22 08:26:51;;;;;;;3.40;3.10;;;18.60;46.60;;;;;;5012301;28;20190;-50
2022/09/22 08:29:17;;;;;;;4.10;3.60;;;18.60;46.40;;;;;;5012529;28;20197;-50
2022/09/22 08:31:44;;;;;;;3.33;2.90;;;18.70;46.60;;;;;;5012244;28;20846;-47
2022/09/22 08:34:10;;;;;;;4.30;2.80;;;18.70;46.70;;;;;;5007495;28;20194;-50
2022/09/22 08:36:36;;;;;;;2.80;2.60;;;18.80;47.00;;;;;;5011349;28;20490;-50
2022/09/22 08:39:03;;;;;;;2.60;2.33;;;18.70;46.10;;;;;;5011717;28;20449;-50
2022/09/22 08:41:45;;;;;;;2.37;2.17;;;18.70;46.10;;;;;;5010571;28;20444;-49
2022/09/22 08:44:27;;;;;;;2.50;2.27;;;19.00;45.50;;;;;;5009715;28;20461;-48
2022/09/22 08:46:55;;;;;;;2.90;2.20;;;19.10;44.70;;;;;;5011355;28;20511;-50
2022/09/22 08:52:43;;;;;;;2.30;2.00;;;19.20;44.30;;;;;;5011560;28;20464;-50
2022/09/22 08:55:20;;;;;;;4.53;1.73;;;19.20;44.80;;;;;;5005741;28;20951;-47
2022/09/22 08:58:23;;;;;;;2.63;1.60;;;19.20;44.80;;;;;;5011589;28;20460;-48
2022/09/22 09:01:07;;;;;;;1.57;1.47;;;19.40;44.00;;;;;;5010287;28;20445;-49
2022/09/22 09:04:06;;;;;;;4.20;1.70;;;19.50;43.90;;;;;;5012696;28;20449;-49
2022/09/22 09:06:57;;;;;;;2.00;1.57;;;19.70;44.40;;;;;;5009410;28;20460;-46
2022/09/22 09:09:40;;;;;;;1.77;1.67;;;19.70;43.10;;;;;;5008759;28;20452;-46
2022/09/22 09:12:29;;;;;;;1.73;1.63;;;19.70;43.30;;;;;;5011084;28;20878;-46
2022/09/22 09:15:08;;;;;;;1.57;1.47;;;19.40;44.00;;;;;;5010533;28;20540;-49
2022/09/22 09:17:37;;;;;;;1.97;1.77;;;19.40;44.10;;;;;;5002644;28;20996;-47
2022/09/22 09:20:25;;;;;;;1.90;1.53;;;19.40;43.50;;;;;;5013181;28;20484;-49
2022/09/22 09:22:54;;;;;;;1.50;1.40;;;19.70;43.70;;;;;;5011797;28;20475;-46
2022/09/22 09:25:56;;;;;;;1.90;1.67;;;20.00;43.60;;;;;;5012831;28;20876;-46
2022/09/22 09:28:40;;;;;;;1.80;1.70;;;20.30;42.60;;;;;;4947800;28;20546;-47
2022/09/22 09:31:31;;;;;;;4.93;1.60;;;20.60;42.40;;;;;;5004491;28;20488;-46
2022/09/22 09:34:06;;;;;;;1.83;1.60;;;20.60;42.30;;;;;;5011623;28;20532;-47
2022/09/22 09:36:36;;;;;;;2.03;1.33;;;20.70;41.90;;;;;;5010537;28;20492;-47
2022/09/22 09:39:13;;;;;;;1.40;1.30;;;21.00;42.50;;;;;;5010347;28;20448;-46
2022/09/22 09:41:40;;;;;;;2.30;2.10;;;21.30;42.00;;;;;;5010324;28;20440;-49
2022/09/22 09:44:06;;;;;;;2.27;1.60;;;21.20;40.60;;;;;;5009930;28;20444;-47
2022/09/22 09:46:45;;;;;;;1.70;1.60;;;21.00;40.70;;;;;;5010179;28;20459;-48
2022/09/22 09:49:13;;;;;;;2.10;1.20;;;21.40;41.50;;;;;;5001103;28;20444;-49
2022/09/22 09:51:46;;;;;;;1.67;1.57;;;21.60;40.50;;;;;;5007996;28;20437;-49
2022/09/22 09:54:14;;;;;;;2.27;1.37;;;21.50;39.90;;;;;;5001559;28;20444;-48
2022/09/22 09:57:01;;;;;;;3.10;1.50;;;21.50;40.80;;;;;;5009347;28;20583;-47
2022/09/22 10:02:14;;;;;;;1.87;1.30;;;21.50;40.20;;;;;;5006535;28;20459;-47
2022/09/22 10:04:40;;;;;;;3.00;1.53;;;21.80;40.10;;;;;;5005546;28;20445;-50
2022/09/22 10:07:14;;;;;;;1.60;1.50;;;22.00;39.20;;;;;;5007102;28;20475;-49
2022/09/22 10:09:40;;;;;;;1.83;1.73;;;22.10;39.60;;;;;;5007995;28;20665;-50
2022/09/22 10:12:29;;;;;;;1.60;1.50;;;22.20;39.60;;;;;;5007470;28;20441;-48
2022/09/22 10:14:59;;;;;;;1.40;1.30;;;22.20;39.00;;;;;;5009317;28;20476;-50
2022/09/22 10:17:29;;;;;;;2.93;1.50;;;22.10;38.80;;;;;;5008835;28;20449;-48
2022/09/22 10:20:20;;;;;;;3.47;1.50;;;22.00;38.90;;;;;;5012044;28;20480;-47
2022/09/22 10:22:47;;;;;;;2.90;1.40;;;22.30;38.70;;;;;;5010330;28;20480;-48
2022/09/22 10:25:26;;;;;;;1.60;1.50;;;22.60;38.20;;;;;;5013414;28;20448;-49
2022/09/22 10:28:08;;;;;;;1.87;1.53;;;22.70;38.20;;;;;;5009979;28;20445;-47
2022/09/22 10:30:38;;;;;;;2.13;1.83;;;23.10;37.80;;;;;;5002150;28;20457;-48
2022/09/22 10:33:22;;;;;;;1.27;1.17;;;23.30;36.90;;;;;;5003694;28;20536;-48
2022/09/22 10:36:06;;;;;;;1.13;1.10;;;23.40;37.40;;;;;;5009800;28;20500;-47
2022/09/22 10:38:35;;;;;;;1.70;1.40;;;23.30;37.10;;;;;;5006441;28;20467;-50
2022/09/22 10:41:12;;;;;;;6.77;1.70;;;23.60;38.40;;;;;;5008723;28;20445;-48
2022/09/22 10:44:13;;;;;;;1.87;1.20;;;23.90;37.10;;;;;;5010884;28;20467;-47
2022/09/22 10:46:50;;;;;;;1.40;1.30;;;24.10;36.60;;;;;;5011004;28;20528;-50
2022/09/22 10:49:22;;;;;;;1.67;1.13;;;24.50;37.20;;;;;;5008340;28;20653;-48
2022/09/22 10:52:02;;;;;;;1.30;1.20;;;24.50;36.40;;;;;;5008114;28;20449;-47
2022/09/22 10:54:54;;;;;;;2.33;1.27;;;24.80;36.40;;;;;;5009513;28;20444;-47
2022/09/22 10:57:36;;;;;;;1.20;1.10;;;25.20;35.30;;;;;;5001034;28;20489;-47
2022/09/22 11:00:08;;;;;;;1.70;1.60;;;25.10;33.30;;;;;;5009543;28;20469;-47
2022/09/22 11:02:56;;;;;;;2.80;1.33;;;25.20;34.60;;;;;;5008679;28;20444;-48
2022/09/22 11:15:05;;;;;;;1.00;1.00;;;25.50;34.20;;;;;;5002600;28;20467;-47
2022/09/22 11:17:31;;;;;;;1.57;1.27;;;25.80;31.80;;;;;;5011232;28;20536;-47
2022/09/22 11:20:06;;;;;;;1.33;1.23;;;25.60;33.10;;;;;;5010294;28;20991;-48
2022/09/22 11:22:47;;;;;;;1.03;1.00;;;25.40;31.40;;;;;;5004465;28;20324;-51
2022/09/22 11:25:15;;;;;;;1.23;1.13;;;25.00;33.40;;;;;;5021715;28;20536;-48
2022/09/22 11:27:53;;;;;;;1.23;1.00;;;25.40;33.50;;;;;;5009166;28;20499;-47
2022/09/22 11:30:21;;;;;;;2.13;1.13;;;25.60;32.30;;;;;;5006958;28;20460;-48
2022/09/22 11:33:03;;;;;;;2.03;1.23;;;25.90;33.00;;;;;;5010102;28;20587;-48
2022/09/22 11:35:38;;;;;;;1.37;1.20;;;26.30;32.30;;;;;;5008191;28;20500;-47
2022/09/22 11:38:48;;;;;;;4.50;2.03;;;26.30;30.20;;;;;;5008966;28;20440;-47
2022/09/22 11:41:24;;;;;;;2.50;1.20;;;26.30;30.90;;;;;;5012483;28;20448;-48
2022/09/22 11:44:05;;;;;;;1.23;1.10;;;26.20;31.40;;;;;;5013389;28;20464;-47
2022/09/22 11:47:05;;;;;;;4.53;1.20;;;26.30;31.60;;;;;;5020521;28;20525;-50
2022/09/22 11:49:58;;;;;;;1.50;1.23;;;26.40;31.00;;;;;;5018019;28;20778;-49
2022/09/22 11:52:55;;;;;;;2.53;1.40;;;26.60;31.50;;;;;;5017317;28;20432;-48
2022/09/22 11:55:45;;;;;;;1.17;1.00;;;26.10;32.10;;;;;;5016245;28;20459;-47
2022/09/22 11:58:17;;;;;;;1.30;0.83;;;26.50;32.30;;;;;;5009268;28;20518;-50
2022/09/22 12:00:52;;;;;;;1.30;1.03;;;26.70;31.10;;;;;;5010567;28;20464;-48
2022/09/22 12:03:25;;;;;;;0.93;0.90;;;26.70;31.40;;;;;;5013675;28;20465;-48
2022/09/22 12:05:55;;;;;;;3.60;1.13;;;27.00;30.60;;;;;;5017388;28;20440;-51
2022/09/22 12:08:27;;;;;;;1.40;1.30;;;27.10;29.90;;;;;;5010242;28;20448;-48
2022/09/22 12:10:54;;;;;;;2.23;1.23;;;26.70;30.40;;;;;;5013948;28;20444;-52
2022/09/22 12:13:23;;;;;;;2.00;1.27;;;26.70;30.90;;;;;;5012811;28;20444;-51
2022/09/22 12:15:57;;;;;;;1.50;1.40;;;26.00;29.50;;;;;;5015321;28;20503;-48
2022/09/22 12:18:44;;;;;;;2.00;1.50;;;25.50;32.20;;;;;;5014833;28;20467;-51
2022/09/22 12:21:46;;;;;;;1.33;1.23;;;26.00;31.90;;;;;;5014545;28;20472;-48
2022/09/22 12:24:12;;;;;;;1.10;1.00;;;26.40;30.90;;;;;;5018318;28;20452;-51
2022/09/22 12:26:41;;;;;;;1.53;1.43;;;26.80;31.60;;;;;;5009874;28;20448;-50
2022/09/22 12:29:13;;;;;;;1.40;1.30;;;26.80;30.30;;;;;;5015470;28;20205;-48
2022/09/22 12:31:41;;;;;;;1.30;1.20;;;26.70;30.60;;;;;;5009581;28;21058;-48
2022/09/22 12:34:26;;;;;;;1.10;1.00;;;26.70;29.60;;;;;;5013553;28;20459;-51
2022/09/22 12:36:55;;;;;;;1.83;1.30;;;26.00;29.80;;;;;;5022879;28;20492;-50
2022/09/22 12:39:22;;;;;;;1.30;1.20;;;25.50;32.20;;;;;;5019189;28;20440;-50
2022/09/22 12:42:05;;;;;;;1.33;1.23;;;25.90;31.70;;;;;;5014842;28;20481;-47
2022/09/22 12:44:36;;;;;;;1.20;1.10;;;26.30;29.90;;;;;;5016068;28;20463;-50
2022/09/22 12:47:21;;;;;;;1.37;1.17;;;25.90;31.10;;;;;;5012176;28;20555;-52
2022/09/22 12:49:57;;;;;;;2.50;1.37;;;25.90;30.50;;;;;;5016604;28;20524;-49
2022/09/22 12:52:38;;;;;;;1.63;1.23;;;26.30;30.50;;;;;;5009975;28;21153;-50
2022/09/22 12:55:28;;;;;;;1.27;1.00;;;26.50;29.80;;;;;;5007157;28;20456;-49
2022/09/22 12:57:59;;;;;;;1.43;1.10;;;26.60;28.90;;;;;;5007302;28;22441;-48
2022/09/22 13:00:39;;;;;;;1.10;1.00;;;26.50;29.00;;;;;;5017440;28;20858;-48
2022/09/22 13:03:24;;;;;;;1.63;1.13;;;26.40;29.00;;;;;;5031111;28;20447;-48
2022/09/22 13:05:53;;;;;;;1.50;1.40;;;26.60;28.30;;;;;;5016649;28;20443;-48
2022/09/22 13:08:25;;;;;;;1.07;0.93;;;26.60;29.40;;;;;;5025251;28;20515;-47
2022/09/22 13:10:56;;;;;;;1.93;1.10;;;26.80;28.60;;;;;;5014517;28;20457;-50
2022/09/22 13:13:35;;;;;;;1.73;1.10;;;26.90;27.90;;;;;;5024477;28;20915;-47
2022/09/22 13:16:04;;;;;;;1.07;1.03;;;26.60;28.20;;;;;;5014624;28;20995;-47
2022/09/22 13:18:37;;;;;;;1.37;1.10;;;26.50;28.70;;;;;;5012506;28;20449;-47
2022/09/22 13:21:12;;;;;;;1.87;1.13;;;26.70;28.60;;;;;;5017804;28;20428;-48
2022/09/22 13:23:50;;;;;;;3.20;1.43;;;27.20;28.70;;;;;;5015060;28;20472;-49
2022/09/22 13:26:21;;;;;;;1.20;1.13;;;27.60;28.00;;;;;;5016320;28;21015;-51
2022/09/22 13:28:58;;;;;;;1.20;1.00;;;27.60;27.40;;;;;;5025846;28;20471;-52
2022/09/22 13:31:23;;;;;;;1.10;1.10;;;27.60;28.20;;;;;;5013682;28;20437;-51